Hartsville, Pennsylvania
Current Conditions -  °F | °C
As of 11:54 PM on Monday 20 Oct 2014 (Local Time) from KDYL Reporting Station
Clear Clear  
Wind Chill: 51°   Ceiling: Unl
Heat Index: 51°   Visibility: 10mi
Dew Point: 44°   Wind: 3mph
Humidity: 77%   Direction: 210°SSW
Pressure: 29.95"   Gusts: NA
Location:  40.2185°N, 75.0735°W
Report Text: KDYL 210354Z AUTO 21003KT 10SM CLR 11/07 A2995 RMK AO2 SLP143 T01060067
Loading
Personal Weather Stations






























Interactive Weather Map
Tropical Storm Tracking
New forecast layout! Learn more

10-Day Weather Forecast

Advertisements
Track Severe Weather on mobile